Time;durP1;ratioP1;P1;durP2;ratioP2;P2;SDS_P1;SDS_P2;PMS_P1;PMS_P2;Temp;Humidity;BMP_temperature;BMP_pressure;BME280_temperature;BME280_humidity;BME280_pressure;Samples;Min_cycle;Max_cycle;Signal;HPM_P1;HPM_P2
2022/09/27 00:03:07;;;;;;;0.30;0.20;;;;;;;;;;21027071;28;20246;-66
2022/09/27 00:13:09;;;;;;;0.27;0.20;;;;;;;;;;21026395;28;20205;-66
2022/09/27 00:23:11;;;;;;;0.50;0.30;;;;;;;;;;21025410;28;20348;-66
2022/09/27 00:33:13;;;;;;;0.20;0.20;;;;;;;;;;21024995;28;20281;-66
2022/09/27 00:43:22;;;;;;;0.37;0.20;;;12.20;99.90;;;;;;21023998;28;20220;-66
2022/09/27 00:53:29;;;;;;;0.40;0.37;;;;;;;;;;21023228;28;20258;-67
2022/09/27 01:03:58;;;;;;;0.20;0.20;;;12.30;99.90;;;;;;21038668;28;20764;-66
2022/09/27 01:14:36;;;;;;;0.30;0.27;;;12.00;99.90;;;;;;21021659;28;20243;-66
2022/09/27 01:25:00;;;;;;;0.30;0.30;;;12.10;99.90;;;;;;21054020;28;20572;-66
2022/09/27 01:35:15;;;;;;;0.30;0.30;;;12.00;99.90;;;;;;21019666;28;20741;-67
2022/09/27 01:45:25;;;;;;;0.30;0.30;;;12.00;99.90;;;;;;21036513;28;20216;-67
2022/09/27 01:55:41;;;;;;;0.70;0.40;;;;;;;;;;21020968;28;20242;-67
2022/09/27 02:06:26;;;;;;;0.47;0.40;;;12.10;99.90;;;;;;21017048;28;20228;-67
2022/09/27 02:16:40;;;;;;;0.60;0.47;;;;;;;;;;21020044;28;20367;-67
2022/09/27 02:26:46;;;;;;;0.60;0.30;;;;;;;;;;21018011;28;20253;-67
2022/09/27 02:36:52;;;;;;;1.60;0.57;;;12.20;99.90;;;;;;21034347;28;20220;-67
2022/09/27 02:47:08;;;;;;;0.30;0.30;;;12.10;99.90;;;;;;21034102;22;20700;-70
2022/09/27 02:57:18;;;;;;;0.67;0.40;;;;;;;;;;21233400;27;20264;-72
2022/09/27 03:07:47;;;;;;;0.30;0.30;;;;;;;;;;21232049;27;20223;-71
2022/09/27 03:17:50;;;;;;;0.77;0.40;;;;;;;;;;21248356;27;20702;-71
2022/09/27 03:27:54;;;;;;;2.60;0.40;;;;;;;;;;21229435;27;20281;-72
2022/09/27 03:37:56;;;;;;;0.20;0.20;;;;;;;;;;21228380;27;20248;-71
2022/09/27 03:47:58;;;;;;;0.70;0.30;;;;;;;;;;21247136;27;20240;-71
2022/09/27 03:58:00;;;;;;;0.47;0.40;;;;;;;;;;21208519;27;20196;-71
2022/09/27 04:08:05;;;;;;;0.77;0.57;;;11.80;99.90;;;;;;21225708;27;20227;-71
2022/09/27 04:18:08;;;;;;;1.30;0.50;;;;;;;;;;21225478;27;20276;-72
2022/09/27 04:28:10;;;;;;;0.87;0.30;;;;;;;;;;21242085;27;20219;-71
2022/09/27 04:38:13;;;;;;;0.30;0.30;;;;;;;;;;21223862;27;20573;-71
2022/09/27 04:48:14;;;;;;;0.93;0.30;;;;;;;;;;21241757;27;20754;-70
2022/09/27 04:58:17;;;;;;;0.30;0.30;;;;;;;;;;21226042;27;20252;-72
2022/09/27 05:08:19;;;;;;;0.30;0.23;;;;;;;;;;21220565;27;20219;-70
2022/09/27 05:18:48;;;;;;;1.20;0.40;;;;;;;;;;21208740;27;20265;-74
2022/09/27 05:29:13;;;;;;;0.97;0.23;;;;;;;;;;21193438;27;20239;-72
2022/09/27 05:39:19;;;;;;;0.10;0.10;;;;;;;;;;21217898;27;20199;-72
2022/09/27 05:49:21;;;;;;;0.23;0.23;;;;;;;;;;21201885;27;20207;-72
2022/09/27 05:59:24;;;;;;;0.33;0.30;;;;;;;;;;21237237;27;20195;-72
2022/09/27 06:09:46;;;;;;;0.20;0.20;;;;;;;;;;21234393;27;20215;-72
2022/09/27 06:19:48;;;;;;;0.30;0.30;;;;;;;;;;21220208;27;20199;-71
2022/09/27 06:29:51;;;;;;;0.23;0.23;;;;;;;;;;21233584;27;20268;-72
2022/09/27 06:40:13;;;;;;;0.20;0.20;;;;;;;;;;21218594;27;20275;-72
2022/09/27 06:50:26;;;;;;;0.20;0.20;;;;;;;;;;21251481;27;20207;-73
2022/09/27 07:00:29;;;;;;;0.30;0.30;;;;;;;;;;21231820;27;20219;-72
2022/09/27 07:10:49;;;;;;;0.20;0.20;;;;;;;;;;21249565;27;20203;-71
2022/09/27 07:20:52;;;;;;;0.40;0.30;;;;;;;;;;21229247;27;20231;-71
2022/09/27 07:30:55;;;;;;;0.30;0.30;;;12.00;99.90;;;;;;21227958;27;20207;-71
2022/09/27 07:40:58;;;;;;;0.20;0.20;;;;;;;;;;21211334;27;20211;-71
2022/09/27 07:51:01;;;;;;;0.20;0.20;;;;;;;;;;21227479;27;20235;-72
2022/09/27 08:01:20;;;;;;;0.30;0.30;;;;;;;;;;21227020;27;20709;-72
2022/09/27 08:11:23;;;;;;;0.30;0.20;;;;;;;;;;21225846;27;20252;-72
2022/09/27 08:21:26;;;;;;;2.77;0.70;;;;;;;;;;21225282;27;20223;-72
2022/09/27 08:31:50;;;;;;;0.30;0.30;;;12.20;99.90;;;;;;21225911;27;20211;-72
2022/09/27 08:41:57;;;;;;;0.40;0.40;;;;;;;;;;21222750;27;20207;-71
2022/09/27 08:51:59;;;;;;;0.60;0.43;;;;;;;;;;21258609;22;20230;-71
2022/09/27 09:02:02;;;;;;;0.40;0.40;;;;;;;;;;21206774;27;20215;-70
2022/09/27 09:23:07;;;;;;;1.53;0.47;;;;;;;;;;21206751;27;20234;-70
2022/09/27 09:33:19;;;;;;;0.60;0.40;;;12.50;99.90;;;;;;21188069;27;20271;-70
2022/09/27 09:43:43;;;;;;;0.70;0.30;;;;;;;;;;21181417;27;20215;-70
2022/09/27 09:53:49;;;;;;;0.80;0.30;;;;;;;;;;21203441;27;20244;-70
2022/09/27 10:03:56;;;;;;;2.20;0.40;;;;;;;;;;21204157;27;20218;-69
2022/09/27 10:13:58;;;;;;;0.53;0.30;;;;;;;;;;21186999;28;20203;-69
2022/09/27 10:24:19;;;;;;;0.20;0.20;;;;;;;;;;21202446;28;20234;-69
2022/09/27 10:34:37;;;;;;;0.33;0.30;;;12.70;99.90;;;;;;21205791;28;20227;-69
2022/09/27 10:44:41;;;;;;;0.60;0.60;;;;;;;;;;21202041;28;20287;-69
2022/09/27 10:55:04;;;;;;;1.37;0.40;;;14.30;99.90;;;;;;21203296;28;20647;-69
2022/09/27 11:05:11;;;;;;;0.27;0.27;;;14.00;99.90;;;;;;21202541;27;20260;-69
2022/09/27 11:15:17;;;;;;;1.20;0.50;;;14.10;99.90;;;;;;21199704;27;20689;-69
2022/09/27 11:25:43;;;;;;;0.93;0.40;;;13.80;99.90;;;;;;21182830;27;20602;-69
2022/09/27 11:35:55;;;;;;;0.50;0.50;;;;;;;;;;21198247;27;20207;-68
2022/09/27 11:46:05;;;;;;;1.07;0.47;;;;;;;;;;21197404;27;20777;-70
2022/09/27 11:56:09;;;;;;;0.60;0.30;;;;;;;;;;21197226;27;20774;-70
2022/09/27 12:06:24;;;;;;;0.40;0.40;;;15.70;99.90;;;;;;21212217;27;20231;-69
2022/09/27 12:16:29;;;;;;;1.53;0.40;;;;;;;;;;21227917;27;20375;-70
2022/09/27 12:26:38;;;;;;;0.40;0.40;;;15.50;99.90;;;;;;21210164;27;20219;-70
2022/09/27 12:36:44;;;;;;;0.40;0.30;;;;;;;;;;21193157;27;20734;-69
2022/09/27 12:47:05;;;;;;;1.13;0.50;;;;;;;;;;21191999;27;20535;-70
2022/09/27 12:57:26;;;;;;;0.40;0.33;;;;;;;;;;21191720;27;20211;-69
2022/09/27 13:07:43;;;;;;;0.97;0.40;;;;;;;;;;21190863;27;20222;-70
2022/09/27 13:17:53;;;;;;;0.50;0.40;;;;;;;;;;21189921;27;20259;-70
2022/09/27 13:28:32;;;;;;;0.30;0.30;;;14.60;99.90;;;;;;21205172;27;20211;-69
2022/09/27 13:38:36;;;;;;;0.83;0.27;;;14.60;99.90;;;;;;21204279;27;20210;-69
2022/09/27 13:48:49;;;;;;;0.50;0.30;;;;;;;;;;21171532;27;20593;-69
2022/09/27 13:59:00;;;;;;;0.20;0.20;;;;;;;;;;21187688;27;20599;-69
2022/09/27 14:09:25;;;;;;;3.27;0.30;;;;;;;;;;21205465;28;20588;-70
2022/09/27 14:19:43;;;;;;;0.20;0.20;;;;;;;;;;21203635;28;20215;-69
2022/09/27 14:29:53;;;;;;;0.23;0.23;;;;;;;;;;21186955;28;20275;-70
2022/09/27 14:40:05;;;;;;;1.70;0.40;;;14.00;99.90;;;;;;21187578;27;20207;-69
2022/09/27 14:50:17;;;;;;;0.93;0.23;;;;;;;;;;21149460;22;20221;-68
2022/09/27 15:00:21;;;;;;;1.13;0.30;;;;;;;;;;20965002;28;20263;-68
2022/09/27 15:10:30;;;;;;;1.07;0.33;;;;;;;;;;20964290;28;20299;-68
2022/09/27 15:20:34;;;;;;;0.33;0.30;;;13.70;99.90;;;;;;20963483;28;20258;-68
2022/09/27 15:30:38;;;;;;;0.30;0.30;;;13.60;99.90;;;;;;20990339;28;20220;-68
2022/09/27 15:40:49;;;;;;;0.27;0.20;;;;;;;;;;21045355;28;20208;-69
2022/09/27 15:50:51;;;;;;;0.30;0.23;;;;;;;;;;21027498;28;20632;-69
2022/09/27 16:00:56;;;;;;;0.20;0.20;;;13.70;99.90;;;;;;21043079;28;20270;-69
2022/09/27 16:10:59;;;;;;;0.37;0.30;;;;;;;;;;21043049;28;20707;-68
2022/09/27 16:21:01;;;;;;;0.37;0.30;;;;;;;;;;21026189;28;20699;-67
2022/09/27 16:31:04;;;;;;;0.20;0.20;;;13.50;99.90;;;;;;21025641;28;20220;-68
2022/09/27 16:41:07;;;;;;;0.40;0.30;;;;;;;;;;21024785;28;20205;-68
2022/09/27 17:01:34;;;;;;;0.47;0.30;;;;;;;;;;21025470;28;20278;-69
2022/09/27 17:11:36;;;;;;;1.20;0.50;;;;;;;;;;21021407;28;20231;-69
2022/09/27 17:21:38;;;;;;;0.77;0.33;;;;;;;;;;20996397;28;20225;-69
2022/09/27 17:31:41;;;;;;;0.60;0.30;;;;;;;;;;20970160;28;20298;-69
2022/09/27 17:41:50;;;;;;;0.30;0.30;;;;;;;;;;20976204;28;20254;-69
2022/09/27 17:51:53;;;;;;;0.20;0.20;;;;;;;;;;21038423;28;20280;-70
2022/09/27 18:01:57;;;;;;;0.33;0.33;;;;;;;;;;21097431;28;20245;-70
2022/09/27 18:11:59;;;;;;;0.60;0.30;;;;;;;;;;21099767;28;20215;-69
2022/09/27 18:22:02;;;;;;;0.83;0.33;;;;;;;;;;21055042;28;20227;-70
2022/09/27 18:32:05;;;;;;;1.00;0.50;;;;;;;;;;21135888;28;20763;-71
2022/09/27 18:42:15;;;;;;;0.20;0.20;;;;;;;;;;21063140;28;20224;-70
2022/09/27 18:52:18;;;;;;;0.63;0.33;;;;;;;;;;21062113;28;20750;-70
2022/09/27 19:02:32;;;;;;;0.50;0.50;;;;;;;;;;21034481;28;20224;-70
2022/09/27 19:12:35;;;;;;;0.20;0.20;;;;;;;;;;21111706;28;20296;-67
2022/09/27 19:22:37;;;;;;;1.33;0.60;;;;;;;;;;21115502;28;20245;-67
2022/09/27 19:32:39;;;;;;;0.30;0.30;;;;;;;;;;21091132;28;20294;-67
2022/09/27 19:42:41;;;;;;;0.70;0.43;;;;;;;;;;21023163;28;20657;-69
2022/09/27 19:52:45;;;;;;;1.13;0.30;;;;;;;;;;20992106;28;20224;-69
2022/09/27 20:02:47;;;;;;;0.20;0.20;;;;;;;;;;21010427;28;20220;-69
2022/09/27 20:12:50;;;;;;;0.33;0.33;;;;;;;;;;21026491;28;20200;-68
2022/09/27 20:22:53;;;;;;;0.80;0.47;;;;;;;;;;21025846;28;20228;-68
2022/09/27 20:43:15;;;;;;;0.33;0.23;;;;;;;;;;20963634;28;20248;-68
2022/09/27 20:53:18;;;;;;;1.00;0.47;;;;;;;;;;20997555;22;20232;-69
2022/09/27 21:03:20;;;;;;;1.53;0.63;;;;;;;;;;21141534;28;20235;-69
2022/09/27 21:13:22;;;;;;;1.10;0.40;;;;;;;;;;21142063;28;20216;-69
2022/09/27 21:23:25;;;;;;;1.27;0.90;;;;;;;;;;21125851;28;20281;-69
2022/09/27 21:33:26;;;;;;;0.77;0.30;;;;;;;;;;21117981;28;20219;-68
2022/09/27 21:43:30;;;;;;;0.40;0.30;;;11.40;99.90;;;;;;21130053;28;20236;-69
2022/09/27 21:53:33;;;;;;;0.27;0.27;;;;;;;;;;21128187;28;20213;-70
2022/09/27 22:03:37;;;;;;;1.10;0.50;;;;;;;;;;21147297;28;20224;-68
2022/09/27 22:13:39;;;;;;;0.37;0.30;;;;;;;;;;21115126;28;20191;-68
2022/09/27 22:23:44;;;;;;;0.20;0.20;;;;;;;;;;21058316;28;20220;-71
2022/09/27 22:33:52;;;;;;;0.50;0.50;;;11.20;99.90;;;;;;21120615;28;20208;-70
2022/09/27 22:43:54;;;;;;;0.30;0.30;;;;;;;;;;21142945;28;20620;-72
2022/09/27 22:53:56;;;;;;;0.57;0.30;;;;;;;;;;21108312;28;20850;-69
2022/09/27 23:03:58;;;;;;;0.67;0.40;;;11.30;99.90;;;;;;21105168;28;20216;-69
2022/09/27 23:14:05;;;;;;;0.60;0.40;;;11.30;99.90;;;;;;21035787;28;20772;-70
2022/09/27 23:24:07;;;;;;;0.40;0.30;;;;;;;;;;21069974;28;20216;-70
2022/09/27 23:34:12;;;;;;;0.20;0.20;;;;;;;;;;21069561;28;20220;-68
2022/09/27 23:44:14;;;;;;;1.63;0.60;;;;;;;;;;21034081;28;20216;-69
2022/09/27 23:54:16;;;;;;;2.33;0.43;;;;;;;;;;21032407;28;20216;-68
